sensor_id;sensor_type;location;lat;lon;timestamp;pressure;altitude;pressure_sealevel;temperature;humidity
39773;BME280;25451;51.960;6.250;2022-12-17T00:00:00;102099.84;;;1.79;75.63
39773;BME280;25451;51.960;6.250;2022-12-17T00:02:43;102103.56;;;1.78;75.71
39773;BME280;25451;51.960;6.250;2022-12-17T00:05:27;102105.28;;;1.79;75.88
39773;BME280;25451;51.960;6.250;2022-12-17T00:08:11;102118.91;;;1.79;75.90
39773;BME280;25451;51.960;6.250;2022-12-17T00:10:57;102112.59;;;1.78;75.81
39773;BME280;25451;51.960;6.250;2022-12-17T00:13:41;102101.88;;;1.77;76.00
39773;BME280;25451;51.960;6.250;2022-12-17T00:16:24;102104.19;;;1.72;75.85
39773;BME280;25451;51.960;6.250;2022-12-17T00:19:08;102098.75;;;1.72;75.93
39773;BME280;25451;51.960;6.250;2022-12-17T00:21:52;102109.50;;;1.73;75.86
39773;BME280;25451;51.960;6.250;2022-12-17T00:24:35;102106.22;;;1.69;76.04
39773;BME280;25451;51.960;6.250;2022-12-17T00:27:19;102115.06;;;1.72;75.68
39773;BME280;25451;51.960;6.250;2022-12-17T00:30:03;102108.94;;;1.69;76.05
39773;BME280;25451;51.960;6.250;2022-12-17T00:32:47;102116.94;;;1.71;76.14
39773;BME280;25451;51.960;6.250;2022-12-17T00:35:31;102117.09;;;1.69;76.17
39773;BME280;25451;51.960;6.250;2022-12-17T00:38:18;102109.78;;;1.70;75.71
39773;BME280;25451;51.960;6.250;2022-12-17T00:41:02;102111.97;;;1.66;75.61
39773;BME280;25451;51.960;6.250;2022-12-17T00:43:47;102106.84;;;1.63;75.91
39773;BME280;25451;51.960;6.250;2022-12-17T00:46:31;102105.13;;;1.62;76.03
39773;BME280;25451;51.960;6.250;2022-12-17T00:49:14;102117.56;;;1.65;75.88
39773;BME280;25451;51.960;6.250;2022-12-17T00:51:58;102124.19;;;1.62;75.83
39773;BME280;25451;51.960;6.250;2022-12-17T00:54:42;102136.75;;;1.63;76.28
39773;BME280;25451;51.960;6.250;2022-12-17T00:57:25;102128.59;;;1.63;76.02
39773;BME280;25451;51.960;6.250;2022-12-17T01:00:10;102125.50;;;1.58;76.14
39773;BME280;25451;51.960;6.250;2022-12-17T01:03:05;102127.19;;;1.59;76.11
39773;BME280;25451;51.960;6.250;2022-12-17T01:05:50;102132.09;;;1.56;75.95
39773;BME280;25451;51.960;6.250;2022-12-17T01:08:33;102137.53;;;1.56;75.76
39773;BME280;25451;51.960;6.250;2022-12-17T01:11:17;102135.97;;;1.53;76.13
39773;BME280;25451;51.960;6.250;2022-12-17T01:14:01;102147.03;;;1.52;76.24
39773;BME280;25451;51.960;6.250;2022-12-17T01:16:44;102146.31;;;1.50;76.26
39773;BME280;25451;51.960;6.250;2022-12-17T01:19:28;102135.91;;;1.45;76.11
39773;BME280;25451;51.960;6.250;2022-12-17T01:22:12;102143.34;;;1.43;76.15
39773;BME280;25451;51.960;6.250;2022-12-17T01:24:55;102148.09;;;1.41;75.74
39773;BME280;25451;51.960;6.250;2022-12-17T01:27:39;102150.13;;;1.39;76.37
39773;BME280;25451;51.960;6.250;2022-12-17T01:30:23;102149.56;;;1.36;75.96
39773;BME280;25451;51.960;6.250;2022-12-17T01:33:08;102162.31;;;1.35;76.13
39773;BME280;25451;51.960;6.250;2022-12-17T01:35:56;102164.50;;;1.32;76.40
39773;BME280;25451;51.960;6.250;2022-12-17T01:38:40;102177.50;;;1.28;76.53
39773;BME280;25451;51.960;6.250;2022-12-17T01:41:24;102184.97;;;1.26;76.51
39773;BME280;25451;51.960;6.250;2022-12-17T01:47:31;102176.72;;;1.18;76.16
39773;BME280;25451;51.960;6.250;2022-12-17T01:50:17;102186.59;;;1.19;76.32
39773;BME280;25451;51.960;6.250;2022-12-17T01:53:03;102198.47;;;1.18;76.57
39773;BME280;25451;51.960;6.250;2022-12-17T01:55:49;102203.50;;;1.13;76.58
39773;BME280;25451;51.960;6.250;2022-12-17T01:58:34;102195.94;;;1.07;76.45
39773;BME280;25451;51.960;6.250;2022-12-17T02:01:20;102193.63;;;1.12;76.00
39773;BME280;25451;51.960;6.250;2022-12-17T02:04:04;102201.94;;;1.11;76.43
39773;BME280;25451;51.960;6.250;2022-12-17T02:10:08;102205.97;;;1.07;75.91
39773;BME280;25451;51.960;6.250;2022-12-17T02:13:04;102204.56;;;1.03;76.42
39773;BME280;25451;51.960;6.250;2022-12-17T02:15:59;102205.41;;;1.03;76.38
39773;BME280;25451;51.960;6.250;2022-12-17T02:18:50;102198.13;;;1.04;76.35
39773;BME280;25451;51.960;6.250;2022-12-17T02:21:36;102207.44;;;1.01;76.03
39773;BME280;25451;51.960;6.250;2022-12-17T02:24:33;102194.13;;;0.98;76.46
39773;BME280;25451;51.960;6.250;2022-12-17T02:27:21;102204.72;;;1.01;76.35
39773;BME280;25451;51.960;6.250;2022-12-17T02:30:06;102200.41;;;0.99;76.23
39773;BME280;25451;51.960;6.250;2022-12-17T02:32:52;102196.00;;;0.98;76.30
39773;BME280;25451;51.960;6.250;2022-12-17T02:35:57;102196.00;;;0.98;75.83
39773;BME280;25451;51.960;6.250;2022-12-17T02:38:42;102189.16;;;0.94;76.17
39773;BME280;25451;51.960;6.250;2022-12-17T02:41:30;102194.59;;;0.94;76.04
39773;BME280;25451;51.960;6.250;2022-12-17T02:44:17;102206.28;;;0.94;76.08
39773;BME280;25451;51.960;6.250;2022-12-17T02:47:05;102211.88;;;0.93;76.04
39773;BME280;25451;51.960;6.250;2022-12-17T02:49:50;102214.59;;;0.93;76.42
39773;BME280;25451;51.960;6.250;2022-12-17T02:52:38;102207.75;;;0.89;76.31
39773;BME280;25451;51.960;6.250;2022-12-17T02:55:22;102222.22;;;0.89;75.84
39773;BME280;25451;51.960;6.250;2022-12-17T02:58:06;102209.75;;;0.87;76.26
39773;BME280;25451;51.960;6.250;2022-12-17T03:00:50;102214.34;;;0.86;76.58
39773;BME280;25451;51.960;6.250;2022-12-17T03:03:33;102211.94;;;0.83;76.01
39773;BME280;25451;51.960;6.250;2022-12-17T03:06:17;102217.38;;;0.83;76.23
39773;BME280;25451;51.960;6.250;2022-12-17T03:09:01;102229.94;;;0.84;76.17
39773;BME280;25451;51.960;6.250;2022-12-17T03:11:45;102233.34;;;0.86;76.68
39773;BME280;25451;51.960;6.250;2022-12-17T03:14:29;102232.38;;;0.87;76.00
39773;BME280;25451;51.960;6.250;2022-12-17T03:17:13;102228.94;;;0.85;76.00
39773;BME280;25451;51.960;6.250;2022-12-17T03:19:57;102223.78;;;0.82;75.89
39773;BME280;25451;51.960;6.250;2022-12-17T03:22:40;102235.38;;;0.84;76.35
39773;BME280;25451;51.960;6.250;2022-12-17T03:25:24;102229.06;;;0.83;76.08
39773;BME280;25451;51.960;6.250;2022-12-17T03:28:09;102228.50;;;0.80;76.29
39773;BME280;25451;51.960;6.250;2022-12-17T03:30:56;102220.91;;;0.83;76.16
39773;BME280;25451;51.960;6.250;2022-12-17T03:33:40;102221.78;;;0.84;76.21
39773;BME280;25451;51.960;6.250;2022-12-17T03:36:24;102225.63;;;0.81;76.47
39773;BME280;25451;51.960;6.250;2022-12-17T03:39:08;102235.38;;;0.84;75.96
39773;BME280;25451;51.960;6.250;2022-12-17T03:41:52;102233.66;;;0.83;76.30
39773;BME280;25451;51.960;6.250;2022-12-17T03:44:35;102238.94;;;0.84;76.45
39773;BME280;25451;51.960;6.250;2022-12-17T03:47:19;102240.09;;;0.82;76.10
39773;BME280;25451;51.960;6.250;2022-12-17T03:50:04;102230.25;;;0.81;76.19
39773;BME280;25451;51.960;6.250;2022-12-17T03:52:48;102239.09;;;0.83;76.06
39773;BME280;25451;51.960;6.250;2022-12-17T03:55:32;102239.94;;;0.83;75.66
39773;BME280;25451;51.960;6.250;2022-12-17T03:58:16;102242.66;;;0.83;75.82
39773;BME280;25451;51.960;6.250;2022-12-17T04:00:59;102230.69;;;0.76;76.14
39773;BME280;25451;51.960;6.250;2022-12-17T04:03:43;102239.94;;;0.83;76.21
39773;BME280;25451;51.960;6.250;2022-12-17T04:06:27;102243.69;;;0.82;75.91
39773;BME280;25451;51.960;6.250;2022-12-17T04:09:11;102248.09;;;0.83;76.22
39773;BME280;25451;51.960;6.250;2022-12-17T04:11:54;102248.09;;;0.83;76.44
39773;BME280;25451;51.960;6.250;2022-12-17T04:14:38;102251.84;;;0.82;76.45
39773;BME280;25451;51.960;6.250;2022-12-17T04:17:22;102258.84;;;0.85;76.33
39773;BME280;25451;51.960;6.250;2022-12-17T04:20:06;102247.25;;;0.83;76.42
39773;BME280;25451;51.960;6.250;2022-12-17T04:22:50;102253.41;;;0.85;75.70
39773;BME280;25451;51.960;6.250;2022-12-17T04:25:34;102260.41;;;0.88;75.81
39773;BME280;25451;51.960;6.250;2022-12-17T04:28:18;102251.41;;;0.87;75.57
39773;BME280;25451;51.960;6.250;2022-12-17T04:31:01;102244.22;;;0.86;76.05
39773;BME280;25451;51.960;6.250;2022-12-17T04:33:45;102248.69;;;0.87;75.86
39773;BME280;25451;51.960;6.250;2022-12-17T04:36:28;102257.53;;;0.89;76.04
39773;BME280;25451;51.960;6.250;2022-12-17T04:39:12;102253.81;;;0.90;75.87
39773;BME280;25451;51.960;6.250;2022-12-17T04:41:56;102250.38;;;0.88;75.49
39773;BME280;25451;51.960;6.250;2022-12-17T04:44:39;102252.38;;;0.86;75.59
39773;BME280;25451;51.960;6.250;2022-12-17T04:47:23;102260.97;;;0.91;75.64
39773;BME280;25451;51.960;6.250;2022-12-17T04:50:07;102260.09;;;0.91;76.12
39773;BME280;25451;51.960;6.250;2022-12-17T04:53:01;102253.09;;;0.88;75.99
39773;BME280;25451;51.960;6.250;2022-12-17T04:55:45;102263.84;;;0.90;75.89
39773;BME280;25451;51.960;6.250;2022-12-17T04:58:29;102270.00;;;0.92;75.79
39773;BME280;25451;51.960;6.250;2022-12-17T05:01:13;102263.53;;;0.93;75.97
39773;BME280;25451;51.960;6.250;2022-12-17T05:04:10;102260.09;;;0.91;76.01
39773;BME280;25451;51.960;6.250;2022-12-17T05:06:54;102264.56;;;0.92;76.02
39773;BME280;25451;51.960;6.250;2022-12-17T05:09:37;102267.81;;;0.95;75.69
39773;BME280;25451;51.960;6.250;2022-12-17T05:12:21;102265.69;;;0.89;75.76
39773;BME280;25451;51.960;6.250;2022-12-17T05:15:05;102274.13;;;0.96;76.06
39773;BME280;25451;51.960;6.250;2022-12-17T05:17:49;102275.81;;;0.97;75.85
39773;BME280;25451;51.960;6.250;2022-12-17T05:20:33;102280.41;;;0.96;76.18
39773;BME280;25451;51.960;6.250;2022-12-17T05:23:17;102278.69;;;0.95;75.63
39773;BME280;25451;51.960;6.250;2022-12-17T05:26:18;102272.41;;;0.95;75.56
39773;BME280;25451;51.960;6.250;2022-12-17T05:29:03;102281.09;;;0.98;75.75
39773;BME280;25451;51.960;6.250;2022-12-17T05:31:48;102272.94;;;0.98;75.84
39773;BME280;25451;51.960;6.250;2022-12-17T05:34:31;102275.81;;;0.97;75.53
39773;BME280;25451;51.960;6.250;2022-12-17T05:37:15;102279.09;;;1.00;75.51
39773;BME280;25451;51.960;6.250;2022-12-17T05:39:59;102270.94;;;1.00;75.61
39773;BME280;25451;51.960;6.250;2022-12-17T05:42:53;102276.38;;;1.00;75.91
39773;BME280;25451;51.960;6.250;2022-12-17T05:45:37;102279.81;;;1.02;75.71
39773;BME280;25451;51.960;6.250;2022-12-17T05:48:21;102279.97;;;1.01;75.56
39773;BME280;25451;51.960;6.250;2022-12-17T05:51:04;102282.69;;;1.01;75.96
39773;BME280;25451;51.960;6.250;2022-12-17T05:53:48;102285.25;;;1.02;75.99
39773;BME280;25451;51.960;6.250;2022-12-17T05:56:32;102280.50;;;1.04;75.92
39773;BME280;25451;51.960;6.250;2022-12-17T05:59:16;102281.53;;;1.03;76.16
39773;BME280;25451;51.960;6.250;2022-12-17T06:01:59;102290.41;;;1.05;75.93
39773;BME280;25451;51.960;6.250;2022-12-17T06:04:43;102297.53;;;1.06;75.48
39773;BME280;25451;51.960;6.250;2022-12-17T06:07:27;102284.97;;;1.05;75.38
39773;BME280;25451;51.960;6.250;2022-12-17T06:10:10;102292.81;;;1.08;75.38
39773;BME280;25451;51.960;6.250;2022-12-17T06:12:56;102304.56;;;1.09;75.74
39773;BME280;25451;51.960;6.250;2022-12-17T06:15:39;102296.22;;;1.10;75.67
39773;BME280;25451;51.960;6.250;2022-12-17T06:18:23;102292.09;;;1.06;75.29
39773;BME280;25451;51.960;6.250;2022-12-17T06:21:07;102294.69;;;1.08;75.73
39773;BME280;25451;51.960;6.250;2022-12-17T06:23:51;102295.41;;;1.10;75.26
39773;BME280;25451;51.960;6.250;2022-12-17T06:26:34;102304.38;;;1.10;75.41
39773;BME280;25451;51.960;6.250;2022-12-17T06:29:18;102304.38;;;1.10;75.58
39773;BME280;25451;51.960;6.250;2022-12-17T06:32:02;102314.44;;;1.10;75.84
39773;BME280;25451;51.960;6.250;2022-12-17T06:34:46;102305.41;;;1.09;75.51
39773;BME280;25451;51.960;6.250;2022-12-17T06:37:29;102318.69;;;1.12;75.74
39773;BME280;25451;51.960;6.250;2022-12-17T06:40:13;102313.25;;;1.12;75.40
39773;BME280;25451;51.960;6.250;2022-12-17T06:42:57;102315.00;;;1.13;75.92
39773;BME280;25451;51.960;6.250;2022-12-17T06:45:41;102321.28;;;1.14;75.30
39773;BME280;25451;51.960;6.250;2022-12-17T06:48:25;102318.69;;;1.12;75.55
39773;BME280;25451;51.960;6.250;2022-12-17T06:51:08;102327.56;;;1.14;75.44
39773;BME280;25451;51.960;6.250;2022-12-17T06:53:52;102327.56;;;1.14;75.64
39773;BME280;25451;51.960;6.250;2022-12-17T06:56:36;102331.00;;;1.16;75.91
39773;BME280;25451;51.960;6.250;2022-12-17T06:59:20;102331.84;;;1.17;75.34
39773;BME280;25451;51.960;6.250;2022-12-17T07:02:04;102337.44;;;1.15;75.53
39773;BME280;25451;51.960;6.250;2022-12-17T07:04:48;102327.88;;;1.11;75.69
39773;BME280;25451;51.960;6.250;2022-12-17T07:07:32;102333.00;;;1.14;75.80
39773;BME280;25451;51.960;6.250;2022-12-17T07:10:16;102334.03;;;1.13;75.69
39773;BME280;25451;51.960;6.250;2022-12-17T07:13:07;102337.59;;;1.14;75.76
39773;BME280;25451;51.960;6.250;2022-12-17T07:15:52;102350.34;;;1.13;75.55
39773;BME280;25451;51.960;6.250;2022-12-17T07:18:36;102336.19;;;1.10;75.59
39773;BME280;25451;51.960;6.250;2022-12-17T07:21:20;102350.50;;;1.12;75.38
39773;BME280;25451;51.960;6.250;2022-12-17T07:24:04;102349.91;;;1.08;75.67
39773;BME280;25451;51.960;6.250;2022-12-17T07:26:48;102357.94;;;1.10;75.51
39773;BME280;25451;51.960;6.250;2022-12-17T07:29:32;102352.22;;;1.03;75.34
39773;BME280;25451;51.960;6.250;2022-12-17T07:32:16;102361.94;;;1.06;75.46
39773;BME280;25451;51.960;6.250;2022-12-17T07:35:00;102373.38;;;1.09;75.59
39773;BME280;25451;51.960;6.250;2022-12-17T07:37:43;102378.13;;;1.07;75.74
39773;BME280;25451;51.960;6.250;2022-12-17T07:40:27;102387.13;;;1.08;75.45
39773;BME280;25451;51.960;6.250;2022-12-17T07:43:12;102387.13;;;1.08;75.49
39773;BME280;25451;51.960;6.250;2022-12-17T07:45:56;102380.84;;;1.07;75.47
39773;BME280;25451;51.960;6.250;2022-12-17T07:48:39;102385.41;;;1.07;75.55
39773;BME280;25451;51.960;6.250;2022-12-17T07:51:23;102383.69;;;1.06;75.29
39773;BME280;25451;51.960;6.250;2022-12-17T07:54:07;102385.72;;;1.04;75.59
39773;BME280;25451;51.960;6.250;2022-12-17T07:56:50;102392.69;;;1.06;75.81
39773;BME280;25451;51.960;6.250;2022-12-17T07:59:34;102388.44;;;1.04;75.41
39773;BME280;25451;51.960;6.250;2022-12-17T08:02:18;102389.56;;;1.01;75.46
39773;BME280;25451;51.960;6.250;2022-12-17T08:05:02;102396.59;;;1.04;75.65
39773;BME280;25451;51.960;6.250;2022-12-17T08:07:46;102401.44;;;1.00;75.58
39773;BME280;25451;51.960;6.250;2022-12-17T08:10:30;102405.31;;;0.98;75.82
39773;BME280;25451;51.960;6.250;2022-12-17T08:13:14;102414.91;;;1.02;75.93
39773;BME280;25451;51.960;6.250;2022-12-17T08:15:57;102420.47;;;1.00;75.54
39773;BME280;25451;51.960;6.250;2022-12-17T08:18:41;102407.88;;;0.99;75.88
39773;BME280;25451;51.960;6.250;2022-12-17T08:21:42;102411.59;;;0.98;75.93
39773;BME280;25451;51.960;6.250;2022-12-17T08:24:26;102411.75;;;0.97;75.62
39773;BME280;25451;51.960;6.250;2022-12-17T08:27:10;102417.19;;;0.97;75.65
39773;BME280;25451;51.960;6.250;2022-12-17T08:29:53;102425.47;;;0.95;75.96
39773;BME280;25451;51.960;6.250;2022-12-17T08:32:37;102427.06;;;0.98;75.76
39773;BME280;25451;51.960;6.250;2022-12-17T08:35:21;102435.94;;;1.00;75.34
39773;BME280;25451;51.960;6.250;2022-12-17T08:38:05;102441.38;;;1.00;75.91
39773;BME280;25451;51.960;6.250;2022-12-17T08:40:49;102444.94;;;1.00;76.02
39773;BME280;25451;51.960;6.250;2022-12-17T08:43:33;102445.78;;;1.01;75.40
39773;BME280;25451;51.960;6.250;2022-12-17T08:46:17;102443.22;;;0.99;75.78
39773;BME280;25451;51.960;6.250;2022-12-17T08:49:00;102442.09;;;1.02;75.75
39773;BME280;25451;51.960;6.250;2022-12-17T08:51:44;102443.63;;;1.04;75.80
39773;BME280;25451;51.960;6.250;2022-12-17T08:54:28;102443.53;;;1.06;75.56
39773;BME280;25451;51.960;6.250;2022-12-17T08:57:11;102442.66;;;1.05;75.75
39773;BME280;25451;51.960;6.250;2022-12-17T08:59:55;102453.22;;;1.08;75.70
39773;BME280;25451;51.960;6.250;2022-12-17T09:02:39;102445.94;;;1.09;75.74
39773;BME280;25451;51.960;6.250;2022-12-17T09:05:23;102436.19;;;1.06;75.46
39773;BME280;25451;51.960;6.250;2022-12-17T09:08:06;102455.66;;;1.11;75.35
39773;BME280;25451;51.960;6.250;2022-12-17T09:10:51;102456.38;;;1.13;75.22
39773;BME280;25451;51.960;6.250;2022-12-17T09:13:35;102463.53;;;1.14;75.37
39773;BME280;25451;51.960;6.250;2022-12-17T09:16:19;102471.41;;;1.17;75.14
39773;BME280;25451;51.960;6.250;2022-12-17T09:19:04;102475.81;;;1.18;75.31
39773;BME280;25451;51.960;6.250;2022-12-17T09:21:47;102466.84;;;1.18;75.67
39773;BME280;25451;51.960;6.250;2022-12-17T09:24:31;102466.97;;;1.16;75.55
39773;BME280;25451;51.960;6.250;2022-12-17T09:27:15;102471.00;;;1.22;75.84
39773;BME280;25451;51.960;6.250;2022-12-17T09:29:58;102477.25;;;1.22;75.14
39773;BME280;25451;51.960;6.250;2022-12-17T09:32:42;102487.88;;;1.25;75.51
39773;BME280;25451;51.960;6.250;2022-12-17T09:35:26;102490.44;;;1.27;75.78
39773;BME280;25451;51.960;6.250;2022-12-17T09:38:11;102495.72;;;1.28;75.64
39773;BME280;25451;51.960;6.250;2022-12-17T09:41:22;102491.16;;;1.29;75.51
39773;BME280;25451;51.960;6.250;2022-12-17T09:49:51;102489.00;;;1.23;74.96
39773;BME280;25451;51.960;6.250;2022-12-17T09:52:38;102508.19;;;1.31;75.60
39773;BME280;25451;51.960;6.250;2022-12-17T09:55:30;102498.44;;;1.28;75.47
39773;BME280;25451;51.960;6.250;2022-12-17T09:58:23;102506.34;;;1.31;75.37
39773;BME280;25451;51.960;6.250;2022-12-17T10:01:16;102517.22;;;1.31;75.55
39773;BME280;25451;51.960;6.250;2022-12-17T10:04:02;102504.75;;;1.29;75.16
39773;BME280;25451;51.960;6.250;2022-12-17T10:06:46;102504.19;;;1.25;74.99
39773;BME280;25451;51.960;6.250;2022-12-17T10:09:32;102508.19;;;1.31;75.01
39773;BME280;25451;51.960;6.250;2022-12-17T10:12:18;102500.31;;;1.28;75.65
39773;BME280;25451;51.960;6.250;2022-12-17T10:15:03;102516.94;;;1.34;75.32
39773;BME280;25451;51.960;6.250;2022-12-17T10:17:48;102508.78;;;1.34;75.32
39773;BME280;25451;51.960;6.250;2022-12-17T10:20:39;102509.50;;;1.36;75.58
39773;BME280;25451;51.960;6.250;2022-12-17T10:23:25;102518.50;;;1.37;75.51
39773;BME280;25451;51.960;6.250;2022-12-17T10:26:15;102506.19;;;1.33;75.26
39773;BME280;25451;51.960;6.250;2022-12-17T10:29:43;102513.75;;;1.39;75.41
39773;BME280;25451;51.960;6.250;2022-12-17T10:32:16;102501.03;;;1.39;75.74
39773;BME280;25451;51.960;6.250;2022-12-17T10:37:50;102506.31;;;1.41;75.39
39773;BME280;25451;51.960;6.250;2022-12-17T10:40:35;102502.75;;;1.40;75.21
39773;BME280;25451;51.960;6.250;2022-12-17T10:43:24;102507.34;;;1.40;75.54
39773;BME280;25451;51.960;6.250;2022-12-17T10:46:08;102504.47;;;1.41;75.08
39773;BME280;25451;51.960;6.250;2022-12-17T10:49:02;102514.19;;;1.44;75.02
39773;BME280;25451;51.960;6.250;2022-12-17T10:51:46;102515.06;;;1.44;75.61
39773;BME280;25451;51.960;6.250;2022-12-17T10:54:32;102517.06;;;1.42;75.29
39773;BME280;25451;51.960;6.250;2022-12-17T10:57:30;102514.06;;;1.45;75.14
39773;BME280;25451;51.960;6.250;2022-12-17T11:00:26;102529.09;;;1.49;75.07
39773;BME280;25451;51.960;6.250;2022-12-17T11:03:29;102530.66;;;1.52;75.15
39773;BME280;25451;51.960;6.250;2022-12-17T11:06:22;102530.50;;;1.53;75.32
39773;BME280;25451;51.960;6.250;2022-12-17T11:09:15;102528.81;;;1.52;74.99
39773;BME280;25451;51.960;6.250;2022-12-17T11:12:04;102523.38;;;1.52;75.18
39773;BME280;25451;51.960;6.250;2022-12-17T11:14:53;102529.53;;;1.54;75.34
39773;BME280;25451;51.960;6.250;2022-12-17T11:17:40;102521.34;;;1.54;74.96
39773;BME280;25451;51.960;6.250;2022-12-17T11:20:39;102528.66;;;1.54;75.34
39773;BME280;25451;51.960;6.250;2022-12-17T11:23:25;102526.09;;;1.52;75.46
39773;BME280;25451;51.960;6.250;2022-12-17T11:26:20;102514.19;;;1.53;75.37
39773;BME280;25451;51.960;6.250;2022-12-17T11:29:09;102515.91;;;1.54;75.35
39773;BME280;25451;51.960;6.250;2022-12-17T11:38:14;102525.78;;;1.55;75.07
39773;BME280;25451;51.960;6.250;2022-12-17T11:41:24;102531.22;;;1.55;75.35
39773;BME280;25451;51.960;6.250;2022-12-17T11:47:10;102523.06;;;1.55;75.43
39773;BME280;25451;51.960;6.250;2022-12-17T11:50:23;102512.19;;;1.55;75.33
39773;BME280;25451;51.960;6.250;2022-12-17T11:53:26;102508.47;;;1.56;75.07
39773;BME280;25451;51.960;6.250;2022-12-17T11:57:23;102510.16;;;1.57;75.02
39773;BME280;25451;51.960;6.250;2022-12-17T11:59:35;102512.88;;;1.57;74.97
39773;BME280;25451;51.960;6.250;2022-12-17T12:05:49;102507.59;;;1.56;74.72
39773;BME280;25451;51.960;6.250;2022-12-17T12:08:54;102512.31;;;1.54;75.08
39773;BME280;25451;51.960;6.250;2022-12-17T12:14:56;102505.31;;;1.51;75.37
39773;BME280;25451;51.960;6.250;2022-12-17T12:18:06;102504.44;;;1.51;75.07
39773;BME280;25451;51.960;6.250;2022-12-17T12:24:01;102492.28;;;1.45;75.16
39773;BME280;25451;51.960;6.250;2022-12-17T12:30:21;102499.59;;;1.45;75.53
39773;BME280;25451;51.960;6.250;2022-12-17T12:33:33;102498.03;;;1.42;75.50
39773;BME280;25451;51.960;6.250;2022-12-17T12:36:20;102500.88;;;1.41;75.30
39773;BME280;25451;51.960;6.250;2022-12-17T12:39:09;102484.69;;;1.39;75.13
39773;BME280;25451;51.960;6.250;2022-12-17T12:48:54;102488.28;;;1.40;75.39
39773;BME280;25451;51.960;6.250;2022-12-17T12:51:40;102488.13;;;1.41;75.19
39773;BME280;25451;51.960;6.250;2022-12-17T13:14:20;102503.47;;;1.33;75.24
39773;BME280;25451;51.960;6.250;2022-12-17T13:16:53;102497.44;;;1.29;75.51
39773;BME280;25451;51.960;6.250;2022-12-17T13:24:43;102485.31;;;1.24;75.46
39773;BME280;25451;51.960;6.250;2022-12-17T13:27:44;102487.56;;;1.28;75.21
39773;BME280;25451;51.960;6.250;2022-12-17T13:41:12;102485.00;;;1.27;75.13
39773;BME280;25451;51.960;6.250;2022-12-17T13:43:51;102491.56;;;1.24;75.11
39773;BME280;25451;51.960;6.250;2022-12-17T13:46:22;102483.72;;;1.21;75.17
39773;BME280;25451;51.960;6.250;2022-12-17T13:48:58;102491.00;;;1.21;75.49
39773;BME280;25451;51.960;6.250;2022-12-17T13:51:26;102492.75;;;1.22;75.59
39773;BME280;25451;51.960;6.250;2022-12-17T13:54:03;102489.31;;;1.20;75.12
39773;BME280;25451;51.960;6.250;2022-12-17T13:56:31;102495.88;;;1.17;75.24
39773;BME280;25451;51.960;6.250;2022-12-17T13:58:58;102499.47;;;1.18;75.37
39773;BME280;25451;51.960;6.250;2022-12-17T14:01:27;102494.03;;;1.18;75.22
39773;BME280;25451;51.960;6.250;2022-12-17T14:03:55;102505.91;;;1.17;75.35
39773;BME280;25451;51.960;6.250;2022-12-17T14:06:22;102492.72;;;1.12;75.46
39773;BME280;25451;51.960;6.250;2022-12-17T14:08:50;102498.03;;;1.14;75.16
39773;BME280;25451;51.960;6.250;2022-12-17T14:11:17;102495.59;;;1.11;75.30
39773;BME280;25451;51.960;6.250;2022-12-17T14:14:01;102503.59;;;1.12;75.25
39773;BME280;25451;51.960;6.250;2022-12-17T14:16:27;102495.19;;;1.06;75.26
39773;BME280;25451;51.960;6.250;2022-12-17T14:18:56;102515.66;;;1.10;75.43
39773;BME280;25451;51.960;6.250;2022-12-17T14:21:22;102509.03;;;1.03;75.12
39773;BME280;25451;51.960;6.250;2022-12-17T14:23:49;102518.63;;;1.07;75.53
39773;BME280;25451;51.960;6.250;2022-12-17T14:26:16;102524.22;;;1.05;75.62
39773;BME280;25451;51.960;6.250;2022-12-17T14:28:47;102515.34;;;1.03;75.52
39773;BME280;25451;51.960;6.250;2022-12-17T14:33:40;102519.19;;;1.01;75.38
39773;BME280;25451;51.960;6.250;2022-12-17T14:36:20;102506.31;;;0.93;75.28
39773;BME280;25451;51.960;6.250;2022-12-17T14:39:01;102514.91;;;0.98;75.34
39773;BME280;25451;51.960;6.250;2022-12-17T14:41:27;102515.91;;;0.97;75.45
39773;BME280;25451;51.960;6.250;2022-12-17T14:44:21;102517.91;;;0.95;75.36
39773;BME280;25451;51.960;6.250;2022-12-17T14:46:48;102518.19;;;0.92;75.39
39773;BME280;25451;51.960;6.250;2022-12-17T14:49:18;102523.50;;;0.94;75.08
39773;BME280;25451;51.960;6.250;2022-12-17T14:51:44;102522.78;;;0.92;75.04
39773;BME280;25451;51.960;6.250;2022-12-17T14:54:17;102525.63;;;0.90;75.08
39773;BME280;25451;51.960;6.250;2022-12-17T14:56:45;102530.47;;;0.87;75.57
39773;BME280;25451;51.960;6.250;2022-12-17T15:01:46;102538.78;;;0.85;75.23
39773;BME280;25451;51.960;6.250;2022-12-17T15:04:12;102537.91;;;0.84;75.06
39773;BME280;25451;51.960;6.250;2022-12-17T15:06:38;102544.47;;;0.82;75.35
39773;BME280;25451;51.960;6.250;2022-12-17T15:09:04;102544.63;;;0.80;75.03
39773;BME280;25451;51.960;6.250;2022-12-17T15:11:29;102542.91;;;0.79;74.92
39773;BME280;25451;51.960;6.250;2022-12-17T15:13:54;102537.59;;;0.78;75.46
39773;BME280;25451;51.960;6.250;2022-12-17T15:16:20;102541.34;;;0.77;75.43
39773;BME280;25451;51.960;6.250;2022-12-17T15:18:45;102542.63;;;0.73;75.16
39773;BME280;25451;51.960;6.250;2022-12-17T15:21:10;102526.41;;;0.62;75.44
39773;BME280;25451;51.960;6.250;2022-12-17T15:23:40;102534.88;;;0.68;75.39
39773;BME280;25451;51.960;6.250;2022-12-17T15:26:08;102547.34;;;0.71;75.39
39773;BME280;25451;51.960;6.250;2022-12-17T15:28:34;102549.19;;;0.70;75.15
39773;BME280;25451;51.960;6.250;2022-12-17T15:30:59;102551.91;;;0.70;75.21
39773;BME280;25451;51.960;6.250;2022-12-17T15:33:25;102551.03;;;0.70;75.22
39773;BME280;25451;51.960;6.250;2022-12-17T15:35:50;102551.31;;;0.67;75.40
39773;BME280;25451;51.960;6.250;2022-12-17T15:38:15;102548.63;;;0.67;75.03
39773;BME280;25451;51.960;6.250;2022-12-17T15:40:40;102547.03;;;0.64;75.15
39773;BME280;25451;51.960;6.250;2022-12-17T15:43:09;102555.31;;;0.63;75.20
39773;BME280;25451;51.960;6.250;2022-12-17T15:45:48;102560.59;;;0.64;75.39
39773;BME280;25451;51.960;6.250;2022-12-17T15:48:16;102561.72;;;0.62;75.13
39773;BME280;25451;51.960;6.250;2022-12-17T15:50:42;102571.63;;;0.63;74.92